Thursday, October 23, 2014
00:44 UTC
  |  Log In   |  Register Free
Airport Search:

Independence Municipal Airport
(KIDP)

FAA data valid effective September 18, 2014 - November 13, 2014 (unless otherwise noted).

 
 
 
 
 
 
 
 
 
 
 
 
 
 

Current Aviation Weather for Independence Municipal Airport (KIDP)

The most recent METAR observation for KIDP was updated at: 0012
METAR Summary (Translated METAR)
KIDP
222355Z AUTO 16005KT 5SM HZ CLR 19/13 A3009 RMK AO2
KCFV
222352Z AUTO 16006KT 10SM FEW070 21/14 A3009 RMK AO2 SLP186 T02060139 10256 20206 55002
(10.6 nm SE from KIDP)
KPPF
222352Z AUTO 00000KT 10SM CLR 21/14 A3010 RMK AO2 SLP188 T02060144 10261 20206 55002
(16.6 nm NE from KIDP)
TAF
No TAF information found within 50 nm of KIDP
  Airport Weather Conditions for KIDP

 Current Weather at IDP
66° F
Fair with Haze
South winds at 5.8 mph
IDP NOAA Radar

Pressure: 30.09 in
Humidity: 68%
Wind: South at 5.8 MPH (5 KT)
Dew Point: 55.4°F
Visibility: 5.00 mi


Airport Weather Forecast for KIDP

Translated METAR and TAF for KIDP
Translated METAR for KIDP (0039 UTC 23 October 2014)
found at http://aviationweather.gov/adds/metars/
 
METAR text: KIDP 230015Z AUTO 15006KT 7SM CLR 18/13 A3010 RMK AO2
Conditions at: KIDP (INDEPENDENCE , KS, US) observed 0015 UTC 23 October 2014
Temperature: 18.0°C (64°F)
Dewpoint: 13.0°C (55°F) [RH = 73%]
Pressure (altimeter): 30.10 inches Hg (1019.4 mb)
Winds: from the SSE (150 degrees) at 7 MPH (6 knots; 3.1 m/s)
Visibility: 7 miles (11 km)
Ceiling: at least 12,000 feet AGL
Clouds: sky clear below 12,000 feet AGL
Weather: automated observation with no human augmentation;
there may or may not be significant weather present at this time
Translated TAF for KIDP

There is no translated TAF available for this airport

Find All Airport Services Find A Hotel Find A Rental Car Find A Golf Course Find A Restaurant $100 Hamburger



FBO's on the Field
FBO Company Facility Photos Services Transportation Aviation Fuel Prices: Prices include tax
Catering Weather Repair Courtesy Rental Type 100LL JetA JetA+ MOGAS 8087
 
City of Independence

This FBO has not yet been rated
FS: Phillips 66
Last Updated: Oct-13
Login to update fuel prices
SS:
Contact City of IndependenceMore FBO Information
 
Add another FBO Facility Photos Catering Weather Repair Courtesy Rental Type 100LL JetA JetA+ MOGAS 8087
Services Transportation Aviation Fuel Prices: Prices include tax


model-print
model-print
model-print
model-print